עמוד ראשי
METAR-TAF:

METAR-TAF

שדות תעופה :

אושואיה, ארגנטינה

קו רוחב: 54-48S, קו אורך: 068-19W, גובה: 16מטר

תצפית מזג אוויר נוכחית

הדו"ח נערך לפני 46דקות, בשעה 09:00 UTC
רוח 2קשר עם כיוונים משתנים
טמפרטורת 0 צלסיוס
לחות 74%
לחץ 1010 hPa
ראות 10 קילומטר או יותר
ללא עננים שבסיסם נמוך מ 5000 רגל או קומולונימבוס

METAR: SAWH 270900Z VRB02KT CAVOK 00/M04 Q1010

זמן: 06:46 (09:46 UTC)

תחזית

הדו"ח נערך לפני 4 שעות ו 31דקות, בשעה 05:15 UTC
תחזית בתוקף מ 27 ב 06 UTC עד 28 ב 06 UTC
רוח 10קשר מכיוון צפון
ראות 10 קילומטר או יותר
ללא עננים שבסיסם נמוך מ 5000 רגל או קומולונימבוס
זמנית מ -
27 ב 06 UTC עד 27 ב 12 UTC
רוח 3קשר עם כיוונים משתנים
ראות: 0500מטר
ערפל קפוא
יעשה מ
27 ב 18 UTC עד 27 ב 20 UTC
רוח 3קשר עם כיוונים משתנים
ראות 10 קילומטר או יותר
עננים בינוניים בגובה 3000רגל
מעונן בגובה 6000רגל

TAF: SAWH 270515Z 2706/2806 36010KT CAVOK TX04/2718Z TNM02/2710Z TEMPO 2706/2712 VRB03KT 0500 FZFG BECMG 2718/2720 VRB03KT 9999 BKN030 OVC060

תצפיות ותחזיות מזג אוויר לגבי יותר מ- 4,000 שדות תעופה ברחבי העולם. דוחות METAR ו- TAF.

התחנות הזמינות מסומנות בנקודות צהובות ואדומות על גבי המפה.

העבר את העכבר לנקודה הצבעונית על מנת לראות את שם התחנה.

לאחר מכן, לחץ כדי לראות את תוכן ואת תחזיות מזג האוויר.

כדי לשנות את המפה: לחץ על הכפתורים הירוקים עם הפלוס השחור כדי להתקרב; על הכפתור הירוק עם המקף כדי להתרחק; או בחיצים הירוקים למפות סמוכות.


METAR-TAF: